Soaring Guidance
Issued by NWS Reno, NV

Home | Current Version | Previous Version | Text Only | Print | Product List | Glossary On
Versions: 1 2 3 4 5 6 7
000
UXUS97 KREV 261347
SRGREV

SOARING FORECAST
NATIONAL WEATHER SERVICE - RENO NV
700 AM PDT SUN MAR 26 2017

THIS SOARING FORECAST IS FOR THE EASTERN SIERRA AND WESTERN NEVADA
WITH SPECIFIC INDICES FOR THE GREATER RENO AREA.

THIS FORECAST IS PREPARED DAILY BY 700 AM AND IS NOT UPDATED.

FOR CURRENT FLIGHT CONDITIONS...FORECASTS...AND ADVISORIES...ACCESS
YOUR LOCAL BRIEFING OUTLET OR FLIGHT SERVICE STATION.

*******************************************************************
FORECASTED LOCAL INDICES FOR RENO:        TODAY     YESTERDAY
FORECASTED MAX TEMP AT RENO (DEG F).....     58          59
FORECASTED TRIGGER TEMPERATURE (DEG F)..     49          45
   EXCEEDED YESTERDAY BY 955 AM PDT
FORECASTED MAXIMUM ALTITUDE (FT MSL)....  10900       13500
FORECASTED SOARING INDEX (FPM)..........    447         705
FORECASTED K-INDEX.........VALID 18Z....     16          26
FORECASTED K-INDEX.........VALID 00Z....     24          20
FORECASTED LIFTED INDEX....VALID 18Z....      9           4
FORECASTED LIFTED INDEX....VALID 00Z....      2           7

AFTERNOON WINDS ALOFT FORECAST
MSL (FT) WIND/TEMP
9000  2818/-01
10000 2719/-02
12000 2722/-05
14000 2527/-09
16000 2533/-13
18000 2549/-18
24000 2670/-29
30000 2588/-44
34000 2596/-53
39000 2588/-58

SLIDE MOUNTAIN DATA:
     DATE       TIME     TEMP  DEWPT   RH         WIND (MPH)
                        (F)   (F)           | DIR  SPEED GUST
2017-03-26    05:50      18    16     87    | 201   59   69
2017-03-26    05:30      18    16     88    | 204   55   64
2017-03-26    05:20      18    16     89    | 203   58   67
2017-03-26    05:00      19    17     91    | 205   59   68

RENO TAF FORECAST:
KRNO 261120Z 2612/2712 VRB03KT P6SM SCT110 BKN200
     FM261500 19007KT P6SM SCT120 OVC180
     FM262300 26011G20KT P6SM SCT090 OVC140
     FM270400 29010KT P6SM BKN070 OVC100
     FM270900 25010KT P6SM VCSH BKN050 OVC100

CARSON CITY TAF FORECAST:
KCXP 261120Z 2612/2712 VRB03KT P6SM SCT110 BKN200
     FM261500 22007KT P6SM SCT110 OVC180
     FM262300 24010G16KT P6SM SCT080 OVC140
     FM270400 26007KT P6SM BKN060 OVC100
     FM270900 25009KT P6SM VCSH BKN050 OVC100

OUTLOOK FOR THE RENO-CARSON CITY-MINDEN AREA:
.MONDAY...MOSTLY CLOUDY WITH A CHANCE OF SHOWERS. SNOW LEVEL
5000 TO 5500 FEET. HIGHS 49 TO 54. NORTHWEST WINDS 10 TO 20 MPH
WITH GUSTS UP TO 35 MPH.

SUNRISE AND SUNSET
MARCH 26 2017.........SUNRISE   652 AM PDT   SUNSET   718 PM PDT
MARCH 27 2017.........SUNRISE   651 AM PDT   SUNSET   719 PM PDT



USA.gov is the U.S. government's official web portal to all federal, state and local government web resources and services.